createdAt,value
2018-06-22T00:00:44.753Z,50.08
2018-06-22T00:03:13.969Z,50.78
2018-06-22T00:05:43.128Z,50.99
2018-06-22T00:08:12.199Z,51.71
2018-06-22T00:10:41.475Z,51.94
2018-06-22T00:13:11.966Z,52.46
2018-06-22T00:15:41.227Z,52.94
2018-06-22T00:18:10.381Z,53.09
2018-06-22T00:20:39.497Z,52.46
2018-06-22T00:23:08.645Z,52.91
2018-06-22T00:25:37.786Z,53.41
2018-06-22T00:28:06.930Z,52.85
2018-06-22T00:30:36.082Z,52.71
2018-06-22T00:33:07.409Z,52.71
2018-06-22T00:35:36.861Z,51.60
2018-06-22T00:38:06.013Z,52.34
2018-06-22T00:40:35.133Z,52.78
2018-06-22T00:43:04.409Z,51.94
2018-06-22T00:45:33.711Z,52.11
2018-06-22T00:48:02.924Z,52.51
2018-06-22T00:50:32.118Z,53.16
2018-06-22T00:53:01.313Z,53.30
2018-06-22T00:55:30.397Z,53.67
2018-06-22T00:57:59.707Z,54.43
2018-06-22T01:00:28.790Z,53.59
2018-06-22T01:02:57.913Z,53.61
2018-06-22T01:05:27.710Z,53.87
2018-06-22T01:07:56.879Z,54.42
2018-06-22T01:10:26.002Z,54.41
2018-06-22T01:12:55.113Z,54.21
2018-06-22T01:15:24.709Z,54.67
2018-06-22T01:17:54.722Z,54.47
2018-06-22T01:20:23.880Z,53.91
2018-06-22T01:22:52.920Z,54.57
2018-06-22T01:25:22.153Z,55.14
2018-06-22T01:27:51.921Z,55.66
2018-06-22T01:30:21.022Z,54.89
2018-06-22T01:32:50.174Z,55.02
2018-06-22T01:35:19.373Z,54.63
2018-06-22T01:37:48.822Z,54.93
2018-06-22T01:40:18.567Z,54.88
2018-06-22T01:42:47.759Z,55.11
2018-06-22T01:45:17.245Z,54.36
2018-06-22T01:47:46.438Z,53.88
2018-06-22T01:50:16.164Z,52.75
2018-06-22T01:52:45.343Z,53.10
2018-06-22T01:55:14.540Z,53.73
2018-06-22T01:57:43.754Z,55.34
2018-06-22T02:00:12.905Z,54.33
2018-06-22T02:02:42.029Z,53.25
2018-06-22T02:05:11.177Z,53.29
2018-06-22T02:07:40.326Z,53.39
2018-06-22T02:10:09.439Z,53.95
2018-06-22T02:12:38.613Z,53.30
2018-06-22T02:15:07.700Z,53.19
2018-06-22T02:17:36.895Z,53.76
2018-06-22T02:20:06.206Z,54.09
2018-06-22T02:22:35.311Z,54.09
2018-06-22T02:25:04.433Z,54.83
2018-06-22T02:27:33.705Z,54.24
2018-06-22T02:30:02.811Z,53.88
2018-06-22T02:32:31.921Z,54.59
2018-06-22T02:35:01.056Z,55.60
2018-06-22T02:37:30.201Z,54.53
2018-06-22T02:39:59.275Z,55.22
2018-06-22T02:42:28.349Z,54.87
2018-06-22T02:44:57.528Z,53.75
2018-06-22T02:47:26.697Z,54.63
2018-06-22T02:49:55.777Z,54.70
2018-06-22T02:52:24.894Z,54.92
2018-06-22T02:54:53.954Z,55.05
2018-06-22T02:57:23.065Z,55.40
2018-06-22T02:59:52.146Z,55.03
2018-06-22T03:02:21.241Z,56.02
2018-06-22T03:04:50.533Z,55.72
2018-06-22T03:07:19.754Z,55.98
2018-06-22T03:09:49.305Z,56.48
2018-06-22T03:12:18.452Z,57.59
2018-06-22T03:14:47.614Z,58.25
2018-06-22T03:17:16.738Z,58.44
2018-06-22T03:19:45.784Z,58.17
2018-06-22T03:22:14.874Z,56.16
2018-06-22T03:24:45.336Z,55.77
2018-06-22T03:27:14.469Z,57.05
2018-06-22T03:29:43.570Z,57.00
2018-06-22T03:32:12.761Z,56.69
2018-06-22T03:34:41.796Z,56.23
2018-06-22T03:37:11.957Z,55.29
2018-06-22T03:39:41.394Z,55.74
2018-06-22T03:42:10.501Z,55.91
2018-06-22T03:44:39.638Z,56.88
2018-06-22T03:47:08.711Z,56.81
2018-06-22T03:49:37.928Z,57.23
2018-06-22T03:52:07.152Z,56.51
2018-06-22T03:54:36.300Z,56.45
2018-06-22T03:57:05.409Z,56.08
2018-06-22T03:59:34.501Z,55.45
2018-06-22T04:02:03.732Z,54.38
2018-06-22T04:04:32.877Z,53.83
2018-06-22T04:07:01.951Z,54.13
2018-06-22T04:09:31.018Z,54.29
2018-06-22T04:12:00.134Z,54.12
2018-06-22T04:14:29.264Z,54.83
2018-06-22T04:16:58.326Z,54.30
2018-06-22T04:19:27.422Z,54.01
2018-06-22T04:21:56.567Z,54.55
2018-06-22T04:24:25.759Z,54.51
2018-06-22T04:26:54.953Z,54.30
2018-06-22T04:29:24.070Z,54.61
2018-06-22T04:31:53.245Z,54.22
2018-06-22T04:34:22.357Z,54.30
2018-06-22T04:36:51.481Z,53.71
2018-06-22T04:39:20.532Z,53.71
2018-06-22T04:41:49.643Z,54.00
2018-06-22T04:44:18.815Z,53.73
2018-06-22T04:46:53.062Z,53.39
2018-06-22T04:49:22.193Z,54.19
2018-06-22T04:51:51.389Z,53.95
2018-06-22T04:54:20.590Z,55.24
2018-06-22T04:56:50.961Z,55.01
2018-06-22T04:59:24.580Z,54.39
2018-06-22T05:01:54.950Z,54.24
2018-06-22T05:04:24.085Z,54.70
2018-06-22T05:06:53.577Z,54.15
2018-06-22T05:09:23.702Z,54.83
2018-06-22T05:11:52.880Z,54.64
2018-06-22T05:14:21.919Z,55.09
2018-06-22T05:16:51.043Z,54.37
2018-06-22T05:19:20.098Z,54.07
2018-06-22T05:21:49.242Z,53.66
2018-06-22T05:24:18.463Z,53.46
2018-06-22T05:26:47.674Z,53.59
2018-06-22T05:29:16.955Z,53.68
2018-06-22T05:31:46.202Z,53.94
2018-06-22T05:34:15.345Z,54.21
2018-06-22T05:36:44.501Z,54.06
2018-06-22T05:39:13.593Z,53.43
2018-06-22T05:41:42.868Z,53.60
2018-06-22T05:44:12.143Z,53.43
2018-06-22T05:46:41.300Z,53.50
2018-06-22T05:49:10.497Z,53.45
2018-06-22T05:51:39.671Z,54.38
2018-06-22T05:54:08.806Z,53.39
2018-06-22T05:56:37.928Z,53.09
2018-06-22T05:59:06.991Z,53.41
2018-06-22T06:01:36.287Z,53.22
2018-06-22T06:04:07.018Z,53.12
2018-06-22T06:06:36.881Z,52.43
2018-06-22T06:09:07.751Z,52.43
2018-06-22T06:11:37.018Z,52.70
2018-06-22T06:14:06.197Z,52.59
2018-06-22T06:16:35.665Z,52.59
2018-06-22T06:19:05.895Z,53.50
2018-06-22T06:21:35.217Z,53.42
2018-06-22T06:24:05.102Z,54.03
2018-06-22T06:26:34.209Z,53.90
2018-06-22T06:29:03.742Z,53.64
2018-06-22T06:31:32.884Z,53.09
2018-06-22T06:34:02.060Z,51.49
2018-06-22T06:36:31.425Z,52.26
2018-06-22T06:39:01.216Z,52.69
2018-06-22T06:41:30.412Z,53.33
2018-06-22T06:43:59.593Z,53.09
2018-06-22T06:46:29.703Z,53.41
2018-06-22T06:48:59.019Z,52.80
2018-06-22T06:51:29.163Z,52.17
2018-06-22T06:53:58.342Z,51.99
2018-06-22T06:56:27.502Z,52.71
2018-06-22T06:58:56.773Z,52.42
2018-06-22T07:01:25.894Z,52.38
2018-06-22T07:03:55.077Z,52.24
2018-06-22T07:06:24.229Z,52.70
2018-06-22T07:08:53.376Z,52.67
2018-06-22T07:11:23.164Z,52.36
2018-06-22T07:13:52.418Z,53.12
2018-06-22T07:16:22.237Z,52.71
2018-06-22T07:18:51.385Z,52.06
2018-06-22T07:21:20.578Z,51.54
2018-06-22T07:23:49.744Z,51.18
2018-06-22T07:26:18.963Z,50.07
2018-06-22T07:28:48.095Z,48.73
2018-06-22T07:31:17.244Z,49.26
2018-06-22T07:33:46.567Z,48.28
2018-06-22T07:36:15.701Z,47.20
2018-06-22T07:38:44.963Z,47.47
2018-06-22T07:41:14.246Z,47.20
2018-06-22T07:43:43.454Z,48.24
2018-06-22T07:46:12.660Z,48.39
2018-06-22T07:48:41.786Z,46.85
2018-06-22T07:51:11.010Z,46.44
2018-06-22T07:53:40.782Z,47.47
2018-06-22T07:56:10.050Z,47.10
2018-06-22T07:58:39.207Z,47.17
2018-06-22T08:01:08.361Z,47.52
2018-06-22T08:03:37.653Z,47.23
2018-06-22T08:06:07.002Z,46.32
2018-06-22T08:08:36.147Z,45.45
2018-06-22T08:11:06.394Z,44.75
2018-06-22T08:13:35.561Z,45.29
2018-06-22T08:16:04.703Z,44.75
2018-06-22T08:18:33.931Z,44.39
2018-06-22T08:21:03.134Z,44.58
2018-06-22T08:23:32.353Z,45.17
2018-06-22T08:26:01.435Z,44.94
2018-06-22T08:28:30.541Z,45.12
2018-06-22T08:30:59.714Z,45.64
2018-06-22T08:33:28.817Z,43.94
2018-06-22T08:35:58.055Z,43.69
2018-06-22T08:38:28.251Z,44.23
2018-06-22T08:40:57.597Z,44.17
2018-06-22T08:43:26.948Z,43.68
2018-06-22T08:45:57.622Z,43.40
2018-06-22T08:48:26.998Z,43.82
2018-06-22T08:50:56.497Z,43.32
2018-06-22T08:53:25.868Z,42.52
2018-06-22T08:55:55.092Z,41.96
2018-06-22T08:58:24.465Z,42.22
2018-06-22T09:00:53.562Z,42.62
2018-06-22T09:03:22.755Z,42.20
2018-06-22T09:05:51.858Z,42.97
2018-06-22T09:08:21.810Z,43.56
2018-06-22T09:10:50.967Z,43.11
2018-06-22T09:13:20.125Z,43.30
2018-06-22T09:15:49.330Z,41.83
2018-06-22T09:18:18.482Z,42.00
2018-06-22T09:20:47.684Z,42.17
2018-06-22T09:23:16.889Z,42.62
2018-06-22T09:25:46.144Z,43.02
2018-06-22T09:28:15.262Z,40.42
2018-06-22T09:30:44.552Z,40.87
2018-06-22T09:33:14.019Z,40.65
2018-06-22T09:35:43.179Z,40.71
2018-06-22T09:38:12.345Z,40.75
2018-06-22T09:40:41.452Z,41.38
2018-06-22T09:43:12.321Z,41.09
2018-06-22T09:45:43.317Z,41.50
2018-06-22T09:48:13.379Z,41.04
2018-06-22T09:50:42.482Z,39.63
2018-06-22T09:53:12.081Z,40.66
2018-06-22T09:55:41.280Z,40.27
2018-06-22T09:58:10.381Z,40.39
2018-06-22T10:00:41.114Z,40.81
2018-06-22T10:03:10.241Z,41.17
2018-06-22T10:05:39.439Z,42.09
2018-06-22T10:08:08.568Z,40.87
2018-06-22T10:10:37.832Z,40.61
2018-06-22T10:13:07.071Z,40.51
2018-06-22T10:15:36.295Z,40.87
2018-06-22T10:18:05.772Z,41.15
2018-06-22T10:20:34.963Z,40.65
2018-06-22T10:23:04.062Z,41.39
2018-06-22T10:25:33.382Z,41.57
2018-06-22T10:28:02.889Z,41.30
2018-06-22T10:30:32.063Z,42.07
2018-06-22T10:33:01.284Z,43.38
2018-06-22T10:35:30.486Z,43.61
2018-06-22T10:38:00.394Z,42.34
2018-06-22T10:40:29.569Z,39.38
2018-06-22T10:42:58.769Z,39.54
2018-06-22T10:45:27.962Z,39.70
2018-06-22T10:47:57.162Z,39.24
2018-06-22T10:50:26.291Z,38.93
2018-06-22T10:52:57.711Z,40.08
2018-06-22T10:55:26.873Z,39.73
2018-06-22T10:57:56.070Z,40.43
2018-06-22T11:00:25.218Z,40.42
2018-06-22T11:02:54.606Z,39.89
2018-06-22T11:05:23.914Z,40.56
2018-06-22T11:07:53.116Z,40.91
2018-06-22T11:10:22.310Z,40.39
2018-06-22T11:12:51.473Z,40.19
2018-06-22T11:15:20.698Z,40.27
2018-06-22T11:17:49.825Z,39.78
2018-06-22T11:20:19.506Z,38.77
2018-06-22T11:22:48.746Z,39.94
2018-06-22T11:25:17.997Z,39.24
2018-06-22T11:27:47.361Z,39.72
2018-06-22T11:30:17.106Z,37.49
2018-06-22T11:32:46.260Z,37.32
2018-06-22T11:35:15.577Z,37.32
2018-06-22T11:37:44.731Z,38.16
2018-06-22T11:40:13.966Z,37.70
2018-06-22T11:42:43.113Z,37.81
2018-06-22T11:45:13.313Z,36.38
2018-06-22T11:47:43.042Z,36.81
2018-06-22T11:50:12.264Z,36.15
2018-06-22T11:52:41.409Z,36.93
2018-06-22T11:55:10.730Z,36.22
2018-06-22T11:57:39.890Z,36.02
2018-06-22T12:00:09.437Z,36.68
2018-06-22T12:02:38.629Z,36.67
2018-06-22T12:05:07.852Z,36.12
2018-06-22T12:07:37.033Z,36.62
2018-06-22T12:10:06.286Z,39.28
2018-06-22T12:12:35.485Z,39.28
2018-06-22T12:15:05.648Z,38.82
2018-06-22T12:17:34.958Z,39.71
2018-06-22T12:20:04.480Z,39.08
2018-06-22T12:22:33.710Z,39.91
2018-06-22T12:25:02.954Z,39.93
2018-06-22T12:27:32.511Z,39.75
2018-06-22T12:30:01.863Z,39.80
2018-06-22T12:32:31.062Z,39.11
2018-06-22T12:35:00.193Z,40.18
2018-06-22T12:37:29.343Z,40.41
2018-06-22T12:39:58.469Z,40.37
2018-06-22T12:42:27.633Z,40.63
2018-06-22T12:44:56.820Z,40.01
2018-06-22T12:47:26.255Z,39.53
2018-06-22T12:49:55.332Z,38.88
2018-06-22T12:52:24.497Z,38.67
2018-06-22T12:54:53.598Z,37.96
2018-06-22T12:57:22.972Z,37.74
2018-06-22T12:59:52.119Z,38.61
2018-06-22T13:02:21.620Z,38.81
2018-06-22T13:04:50.801Z,38.84
2018-06-22T13:07:19.970Z,39.18
2018-06-22T13:09:49.709Z,39.35
2018-06-22T13:12:19.051Z,38.43
2018-06-22T13:14:48.220Z,37.40
2018-06-22T13:17:17.457Z,38.72
2018-06-22T13:19:46.550Z,38.96
2018-06-22T13:22:15.717Z,39.89
2018-06-22T13:24:44.836Z,39.08
2018-06-22T13:27:14.313Z,40.09
2018-06-22T13:29:43.444Z,39.31
2018-06-22T13:32:12.522Z,39.34
2018-06-22T13:34:41.639Z,39.46
2018-06-22T13:37:10.789Z,39.32
2018-06-22T13:39:39.906Z,39.97
2018-06-22T13:42:10.433Z,40.85
2018-06-22T13:44:39.648Z,39.85
2018-06-22T13:47:08.934Z,38.95
2018-06-22T13:49:38.194Z,38.68
2018-06-22T13:52:07.386Z,38.29
2018-06-22T13:54:36.519Z,38.70
2018-06-22T13:57:06.378Z,40.20
2018-06-22T13:59:35.453Z,40.05
2018-06-22T14:02:04.637Z,39.11
2018-06-22T14:04:39.225Z,38.99
2018-06-22T14:07:08.379Z,37.87
2018-06-22T14:09:37.541Z,36.40
2018-06-22T14:12:06.674Z,35.83
2018-06-22T14:14:35.820Z,34.54
2018-06-22T14:17:04.957Z,35.49
2018-06-22T14:19:34.205Z,34.40
2018-06-22T14:22:03.844Z,35.85
2018-06-22T14:24:33.414Z,35.09
2018-06-22T14:27:02.653Z,33.90
2018-06-22T14:29:32.067Z,33.48
2018-06-22T14:32:01.518Z,33.59
2018-06-22T14:34:30.684Z,34.02
2018-06-22T14:37:00.732Z,33.32
2018-06-22T14:39:30.294Z,32.34
2018-06-22T14:41:59.402Z,32.95
2018-06-22T14:44:28.589Z,31.87
2018-06-22T14:46:57.731Z,31.19
2018-06-22T14:49:26.841Z,31.03
2018-06-22T14:52:01.551Z,31.87
2018-06-22T14:54:35.976Z,32.41
2018-06-22T14:57:12.438Z,31.53
2018-06-22T14:59:47.544Z,31.04
2018-06-22T15:02:22.040Z,32.44
2018-06-22T15:06:57.794Z,31.99
2018-06-22T15:09:27.014Z,32.36
2018-06-22T15:11:56.467Z,31.50
2018-06-22T15:14:25.798Z,30.00
2018-06-22T15:16:55.379Z,29.75
2018-06-22T15:19:24.475Z,30.17
2018-06-22T15:21:53.599Z,30.19
2018-06-22T15:24:23.702Z,30.21
2018-06-22T15:26:52.926Z,31.13
2018-06-22T15:29:22.507Z,30.44
2018-06-22T15:31:51.675Z,29.46
2018-06-22T15:34:25.939Z,28.92
2018-06-22T15:37:00.242Z,27.89
2018-06-22T15:39:34.907Z,27.83
2018-06-22T15:42:09.712Z,28.43
2018-06-22T15:44:44.205Z,28.34
2018-06-22T15:47:18.671Z,28.15
2018-06-22T15:49:53.660Z,29.70
2018-06-22T15:52:27.984Z,29.16
2018-06-22T15:55:00.858Z,28.83
2018-06-22T15:57:30.426Z,27.86
2018-06-22T15:59:59.563Z,27.52
2018-06-22T16:02:33.975Z,27.57
2018-06-22T16:05:03.121Z,26.90
2018-06-22T16:07:32.616Z,28.28
2018-06-22T16:10:02.944Z,30.72
2018-06-22T16:12:37.293Z,31.75
2018-06-22T16:15:13.850Z,31.62
2018-06-22T16:17:48.379Z,32.33
2018-06-22T16:20:22.893Z,32.68
2018-06-22T16:22:58.324Z,31.36
2018-06-22T16:25:32.637Z,31.24
2018-06-22T16:28:03.049Z,31.68
2018-06-22T16:30:32.405Z,31.74
2018-06-22T16:33:01.661Z,32.16
2018-06-22T16:35:31.085Z,32.44
2018-06-22T16:38:00.284Z,32.92
2018-06-22T16:40:29.589Z,33.81
2018-06-22T16:42:58.763Z,35.19
2018-06-22T16:45:27.961Z,34.87
2018-06-22T16:47:57.081Z,34.92
2018-06-22T16:50:26.290Z,35.63
2018-06-22T16:52:55.404Z,34.87
2018-06-22T16:55:24.551Z,34.84
2018-06-22T16:57:53.713Z,32.45
2018-06-22T17:00:22.935Z,31.66
2018-06-22T17:02:52.790Z,32.17
2018-06-22T17:05:21.961Z,31.43
2018-06-22T17:07:56.512Z,31.21
2018-06-22T17:10:31.748Z,30.60
2018-06-22T17:13:06.118Z,32.29
2018-06-22T17:15:40.507Z,33.16
2018-06-22T17:18:14.840Z,33.93
2018-06-22T17:20:44.126Z,33.93
2018-06-22T17:23:13.302Z,34.19
2018-06-22T17:25:42.707Z,35.68
2018-06-22T17:28:11.903Z,35.71
2018-06-22T17:30:41.075Z,36.34
2018-06-22T17:33:10.922Z,36.12
2018-06-22T17:35:40.178Z,37.00
2018-06-22T17:38:09.308Z,37.60
2018-06-22T17:40:39.150Z,37.39
2018-06-22T17:43:08.314Z,37.38
2018-06-22T17:45:37.527Z,37.74
2018-06-22T17:48:06.679Z,37.80
2018-06-22T17:50:35.815Z,37.63
2018-06-22T17:53:05.005Z,38.08
2018-06-22T17:55:34.238Z,37.28
2018-06-22T17:58:03.491Z,37.58
2018-06-22T18:00:38.066Z,37.63
2018-06-22T18:03:12.341Z,37.99
2018-06-22T18:05:46.865Z,38.02
2018-06-22T18:08:21.399Z,38.34
2018-06-22T18:10:55.937Z,37.92
2018-06-22T18:13:25.763Z,37.30
2018-06-22T18:15:55.155Z,38.03
2018-06-22T18:18:24.339Z,37.83
2018-06-22T18:20:54.186Z,37.41
2018-06-22T18:23:23.542Z,38.80
2018-06-22T18:25:52.625Z,38.85
2018-06-22T18:28:21.778Z,39.81
2018-06-22T18:30:51.091Z,38.90
2018-06-22T18:33:20.336Z,39.01
2018-06-22T18:35:49.530Z,39.22
2018-06-22T18:38:18.734Z,38.39
2018-06-22T18:40:48.014Z,39.53
2018-06-22T18:43:22.453Z,39.33
2018-06-22T18:45:51.653Z,39.15
2018-06-22T18:48:20.854Z,40.01
2018-06-22T18:50:50.055Z,40.20
2018-06-22T18:53:24.519Z,40.30
2018-06-22T18:55:58.882Z,40.46
2018-06-22T18:58:33.295Z,40.77
2018-06-22T19:01:07.596Z,40.77
2018-06-22T19:03:42.198Z,40.67
2018-06-22T19:06:11.434Z,40.99
2018-06-22T19:08:40.675Z,41.87
2018-06-22T19:11:09.849Z,42.71
2018-06-22T19:13:39.168Z,41.45
2018-06-22T19:16:08.425Z,42.31
2018-06-22T19:18:37.734Z,42.63
2018-06-22T19:21:07.195Z,42.58
2018-06-22T19:23:36.631Z,42.16
2018-06-22T19:26:06.369Z,43.10
2018-06-22T19:28:36.146Z,42.87
2018-06-22T19:31:06.269Z,43.59
2018-06-22T19:33:35.608Z,43.64
2018-06-22T19:36:05.475Z,43.71
2018-06-22T19:38:34.746Z,44.31
2018-06-22T19:41:04.221Z,43.47
2018-06-22T19:43:38.710Z,43.44
2018-06-22T19:46:13.298Z,43.25
2018-06-22T19:48:47.802Z,43.43
2018-06-22T19:51:22.186Z,44.58
2018-06-22T19:53:54.956Z,44.36
2018-06-22T19:56:24.105Z,44.91
2018-06-22T19:58:53.215Z,44.67
2018-06-22T20:01:22.786Z,45.22
2018-06-22T20:03:51.970Z,44.92
2018-06-22T20:06:21.154Z,45.53
2018-06-22T20:08:50.328Z,44.87
2018-06-22T20:11:19.463Z,44.81
2018-06-22T20:13:48.632Z,44.76
2018-06-22T20:16:17.846Z,45.44
2018-06-22T20:18:47.002Z,45.94
2018-06-22T20:21:16.178Z,46.20
2018-06-22T20:23:45.380Z,46.37
2018-06-22T20:26:14.531Z,45.96
2018-06-22T20:28:43.906Z,46.03
2018-06-22T20:31:17.220Z,46.59
2018-06-22T20:33:46.458Z,46.55
2018-06-22T20:36:20.945Z,47.09
2018-06-22T20:38:55.177Z,46.48
2018-06-22T20:41:29.749Z,46.65
2018-06-22T20:44:04.273Z,45.91
2018-06-22T20:46:38.770Z,45.76
2018-06-22T20:49:13.349Z,45.45
2018-06-22T20:51:44.488Z,46.41
2018-06-22T20:54:14.301Z,46.73
2018-06-22T20:56:43.538Z,46.18
2018-06-22T20:59:12.667Z,46.06
2018-06-22T21:01:42.309Z,46.91
2018-06-22T21:04:11.502Z,47.54
2018-06-22T21:06:40.620Z,48.35
2018-06-22T21:09:11.112Z,48.64
2018-06-22T21:11:40.260Z,47.67
2018-06-22T21:14:09.431Z,48.22
2018-06-22T21:16:38.571Z,49.42
2018-06-22T21:19:07.922Z,48.98
2018-06-22T21:21:42.441Z,48.97
2018-06-22T21:24:11.523Z,49.10
2018-06-22T21:26:40.720Z,49.84
2018-06-22T21:29:15.077Z,49.55
2018-06-22T21:31:49.636Z,50.63
2018-06-22T21:34:23.930Z,51.14
2018-06-22T21:36:58.518Z,50.90
2018-06-22T21:39:27.630Z,51.12
2018-06-22T21:41:57.851Z,51.33
2018-06-22T21:44:27.034Z,50.90
2018-06-22T21:46:56.144Z,52.35
2018-06-22T21:49:25.234Z,53.09
2018-06-22T21:51:54.353Z,52.41
2018-06-22T21:54:23.506Z,53.41
2018-06-22T21:56:52.566Z,53.50
2018-06-22T21:59:21.651Z,53.50
2018-06-22T22:01:50.849Z,53.46
2018-06-22T22:04:19.992Z,53.82
2018-06-22T22:06:49.420Z,53.89
2018-06-22T22:09:19.465Z,53.75
2018-06-22T22:11:53.694Z,53.23
2018-06-22T22:14:28.166Z,53.21
2018-06-22T22:16:57.338Z,53.15
2018-06-22T22:19:27.345Z,52.61
2018-06-22T22:21:56.514Z,53.79
2018-06-22T22:24:25.755Z,52.98
2018-06-22T22:26:54.887Z,52.78
2018-06-22T22:29:24.311Z,53.51
2018-06-22T22:31:53.459Z,53.67
2018-06-22T22:34:22.650Z,52.89
2018-06-22T22:36:51.803Z,53.65
2018-06-22T22:39:21.886Z,54.94
2018-06-22T22:41:51.054Z,55.58
2018-06-22T22:44:20.524Z,55.44
2018-06-22T22:46:49.696Z,56.49
2018-06-22T22:49:18.813Z,55.46
2018-06-22T22:51:47.910Z,56.44
2018-06-22T22:54:17.046Z,56.89
2018-06-22T22:56:46.202Z,57.74
2018-06-22T22:59:15.345Z,57.31
2018-06-22T23:01:45.089Z,57.15
2018-06-22T23:04:14.336Z,56.42
2018-06-22T23:06:43.442Z,56.57
2018-06-22T23:09:12.575Z,57.25
2018-06-22T23:11:41.692Z,56.62
2018-06-22T23:14:10.839Z,56.82
2018-06-22T23:16:40.021Z,66.40
2018-06-22T23:19:09.125Z,65.10
2018-06-22T23:21:38.227Z,61.43
2018-06-22T23:24:07.414Z,62.82
2018-06-22T23:26:36.546Z,59.71
2018-06-22T23:29:06.065Z,61.42
2018-06-22T23:31:35.136Z,62.83
2018-06-22T23:34:04.229Z,60.93
2018-06-22T23:36:33.327Z,57.39
2018-06-22T23:39:02.409Z,53.88
2018-06-22T23:41:31.497Z,56.75
2018-06-22T23:44:00.861Z,59.34
2018-06-22T23:46:30.012Z,59.53
2018-06-22T23:48:59.112Z,58.12
2018-06-22T23:51:28.173Z,57.07
2018-06-22T23:53:57.382Z,51.97
2018-06-22T23:56:26.555Z,55.09
2018-06-22T23:58:55.697Z,56.15
